^^
Datos históricos de la estación: Murcia-Puente Tocinos
Diario Informe para Agosto 20, 2019 Unidades:  Ambas    Ingés   Métrico
Diario Semanal Mensual Anual
  Máxima: Mínima: Promedio:
Temperatura: 57.9 °F /  14.4 °C 46.9 °F /  8.3 °C 52.2 °F /  11.2 °C
Punto de rocio: 48 °F /  8.9 °C 34.5 °F /  1.4 °C 43.5 °F /  6.4 °C
Humedad: 93% 49% 74%
Velocidad viento: 13.7mph /  22.1km/h - 4.6mph /  7.4km/h
Racha viento: 26mph /  41.8km/h - -
Viento- - OSO
Presión: 30 in /  1014.2 hPa 29.7 in /  1006.7 hPa -
Precipitación: 0.06 in /  1.5 mm    
 
 
Tabla de datos para Agosto 20, 2019
Hora Temperatura Punto de rocio Presión Viento Velocidad viento Racha viento Humedad Intensidad lluvia(por hora) Nubes
00:04 51.3 °F /  10.7 °C 43.5 °F /  6.4 °C 29.9in /  1010.8hPa ESE 2mph /  3.2km/h 5mph /  8km/h 75% 0in /  0.0mm
00:09 51.3 °F /  10.7 °C 43.5 °F /  6.4 °C 29.8in /  1010.7hPa ESE 1.9mph /  3km/h 4mph /  6.4km/h 75% 0in /  0.0mm
00:14 51.4 °F /  10.8 °C 43.7 °F /  6.5 °C 29.8in /  1010.7hPa ESE 1.8mph /  2.9km/h 2mph /  3.2km/h 75% 0in /  0.0mm
00:19 51.4 °F /  10.8 °C 43.9 °F /  6.6 °C 29.9in /  1010.8hPa ESE 0.9mph /  1.4km/h   75.6% 0in /  0.0mm
00:24 51.4 °F /  10.8 °C 44.1 °F /  6.7 °C 29.9in /  1010.8hPa Calm     76% 0in /  0.0mm
00:29 51.4 °F /  10.8 °C 44.2 °F /  6.8 °C 29.9in /  1010.8hPa Calm     76.2% 0in /  0.0mm
00:34 51.6 °F /  10.9 °C 44.4 °F /  6.9 °C 29.9in /  1010.8hPa Calm   1.4mph /  2.3km/h 76.6% 0in /  0.0mm
00:39 51.6 °F /  10.9 °C 44.2 °F /  6.8 °C 29.8in /  1010.6hPa Calm   1mph /  1.6km/h 76% 0in /  0.0mm
00:44 51.8 °F /  11 °C 44.4 °F /  6.9 °C 29.8in /  1010.6hPa Calm     76% 0in /  0.0mm
00:49 52 °F /  11.1 °C 45 °F /  7.2 °C 29.8in /  1010.6hPa ESE 0.7mph /  1.1km/h 3.6mph /  5.8km/h 76.8% 0in /  0.0mm
00:54 52.2 °F /  11.2 °C 45.3 °F /  7.4 °C 29.8in /  1010.4hPa ESE 1.4mph /  2.2km/h 4mph /  6.4km/h 77.5% 0in /  0.0mm
00:59 52.2 °F /  11.2 °C 45.3 °F /  7.4 °C 29.8in /  1010.4hPa ESE 1.7mph /  2.8km/h 3.5mph /  5.6km/h 77.5% 0in /  0.0mm
01:04 52.2 °F /  11.2 °C 45.7 °F /  7.6 °C 29.8in /  1010.4hPa ESE 2mph /  3.2km/h 4.6mph /  7.4km/h 78.6% 0in /  0.0mm
01:09 52 °F /  11.1 °C 45.7 °F /  7.6 °C 29.8in /  1010.0hPa ESE 1.6mph /  2.6km/h 5mph /  8km/h 78.9% 0in /  0.0mm
01:14 51.6 °F /  10.9 °C 45.3 °F /  7.4 °C 29.8in /  1010.0hPa ESE 1.4mph /  2.2km/h 3.6mph /  5.8km/h 78.6% 0in /  0.0mm
01:19 51.4 °F /  10.8 °C 45.1 °F /  7.3 °C 29.8in /  1010.0hPa ESE 1.6mph /  2.6km/h 4mph /  6.4km/h 79% 0.01in /  0.3mm
01:24 51.3 °F /  10.7 °C 45.1 °F /  7.3 °C 29.8in /  1009.7hPa ESE 1.8mph /  2.9km/h 4mph /  6.4km/h 79.6% 0.01in /  0.3mm
01:29 51.3 °F /  10.7 °C 45.7 °F /  7.6 °C 29.8in /  1009.7hPa ESE 1.8mph /  2.9km/h 3mph /  4.8km/h 81.2% 0.01in /  0.3mm
01:34 51.3 °F /  10.7 °C 46 °F /  7.8 °C 29.8in /  1009.7hPa ESE 1.8mph /  2.9km/h 2mph /  3.2km/h 82% 0.01in /  0.3mm
01:39 51.3 °F /  10.7 °C 46 °F /  7.8 °C 29.8in /  1009.5hPa ESE 0.7mph /  1.2km/h 2.3mph /  3.7km/h 82% 0.01in /  0.3mm
01:44 51.3 °F /  10.7 °C 46 °F /  7.8 °C 29.8in /  1009.5hPa Calm   2mph /  3.2km/h 82.3% 0.01in /  0.3mm
01:49 51.3 °F /  10.7 °C 46.2 °F /  7.9 °C 29.8in /  1009.5hPa Calm   4.6mph /  7.4km/h 83% 0.01in /  0.3mm
01:54 51.1 °F /  10.6 °C 46 °F /  7.8 °C 29.8in /  1009.2hPa Calm   5mph /  8km/h 83% 0.01in /  0.3mm
01:59 51.1 °F /  10.6 °C 46.2 °F /  7.9 °C 29.8in /  1009.2hPa ESE 1.4mph /  2.2km/h 4mph /  6.4km/h 83.3% 0.01in /  0.3mm
02:04 51.1 °F /  10.6 °C 46.4 °F /  8 °C 29.8in /  1009.2hPa ESE 2mph /  3.2km/h 3mph /  4.8km/h 84% 0.03in /  0.8mm
02:09 51.1 °F /  10.6 °C 46.4 °F /  8 °C 29.8in /  1009.1hPa ESE 0.8mph /  1.3km/h 4mph /  6.4km/h 84% 0.03in /  0.8mm
02:14 51.1 °F /  10.6 °C 46.4 °F /  8 °C 29.8in /  1009.1hPa Calm   5mph /  8km/h 84% 0.03in /  0.8mm
02:19 50.7 °F /  10.4 °C 46.4 °F /  8 °C 29.8in /  1009.1hPa SE 1.5mph /  2.4km/h 5mph /  8km/h 84.6% 0.03in /  0.8mm
02:24 50.7 °F /  10.4 °C 46.4 °F /  8 °C 29.8in /  1008.9hPa SE 2.4mph /  3.9km/h 5mph /  8km/h 85% 0.02in /  0.5mm
02:29 50.7 °F /  10.4 °C 46.4 °F /  8 °C 29.8in /  1008.9hPa SE 1.8mph /  2.9km/h 2.9mph /  4.7km/h 85.2% 0.02in /  0.5mm
02:34 50.7 °F /  10.4 °C 46.8 °F /  8.2 °C 29.8in /  1008.9hPa SE 1.4mph /  2.2km/h 3mph /  4.8km/h 86% 0.02in /  0.5mm
02:39 50.7 °F /  10.4 °C 46.8 °F /  8.2 °C 29.8in /  1008.7hPa SE 1.4mph /  2.2km/h 3.6mph /  5.8km/h 86% 0.02in /  0.5mm
02:44 50.7 °F /  10.4 °C 46.8 °F /  8.2 °C 29.8in /  1008.7hPa SE 1.4mph /  2.3km/h 2.3mph /  3.7km/h 86% 0.02in /  0.5mm
02:49 50.7 °F /  10.4 °C 46.8 °F /  8.2 °C 29.8in /  1008.7hPa SE 0.5mph /  0.8km/h   86.3% 0.02in /  0.5mm
02:54 50.7 °F /  10.4 °C 46.9 °F /  8.3 °C 29.8in /  1008.6hPa Calm     87% 0.02in /  0.5mm
02:59 50.5 °F /  10.3 °C 46.9 °F /  8.3 °C 29.8in /  1008.6hPa Calm     87% 0.02in /  0.5mm
03:04 50.5 °F /  10.3 °C 46.8 °F /  8.2 °C 29.8in /  1008.6hPa Calm     87% 0.02in /  0.5mm
03:09 50.4 °F /  10.2 °C 46.6 °F /  8.1 °C 29.8in /  1008.6hPa Calm     87% 0.02in /  0.5mm
03:14 50.2 °F /  10.1 °C 46.6 °F /  8.1 °C 29.8in /  1008.6hPa Calm     87% 0in /  0.0mm
03:19 50.2 °F /  10.1 °C 46.4 °F /  8 °C 29.8in /  1008.6hPa Calm     87% 0in /  0.0mm
03:24 50 °F /  10 °C 46.4 °F /  8 °C 29.8in /  1008.5hPa Calm     87.4% 0in /  0.0mm
03:29 49.8 °F /  9.9 °C 46.4 °F /  8 °C 29.8in /  1008.5hPa Calm     88% 0in /  0.0mm
03:34 49.8 °F /  9.9 °C 46.4 °F /  8 °C 29.8in /  1008.5hPa Calm     88% 0.01in /  0.2mm
03:39 49.8 °F /  9.9 °C 46.4 °F /  8 °C 29.8in /  1008.5hPa Calm     88.3% 0.01in /  0.2mm
03:44 49.8 °F /  9.9 °C 46.8 °F /  8.2 °C 29.8in /  1008.5hPa Calm   3.1mph /  5km/h 89% 0.01in /  0.2mm
03:49 50.2 °F /  10.1 °C 47.1 °F /  8.4 °C 29.8in /  1008.5hPa SE 0.9mph /  1.4km/h 3.6mph /  5.8km/h 89% 0.01in /  0.2mm
03:54 50.2 °F /  10.1 °C 47.1 °F /  8.4 °C 29.8in /  1008.5hPa SE 1.4mph /  2.2km/h 4mph /  6.4km/h 89% 0.01in /  0.2mm
03:59 50.2 °F /  10.1 °C 47.1 °F /  8.4 °C 29.8in /  1008.5hPa SE 1.7mph /  2.7km/h 3mph /  4.8km/h 89% 0.01in /  0.2mm
04:04 50.2 °F /  10.1 °C 47.1 °F /  8.4 °C 29.8in /  1008.5hPa SE 1.8mph /  2.9km/h 3.5mph /  5.6km/h 89% 0.01in /  0.2mm
04:09 50 °F /  10 °C 46.9 °F /  8.3 °C 29.8in /  1008.2hPa SE 1.8mph /  2.9km/h 3.5mph /  5.6km/h 89.4% 0.01in /  0.2mm
04:14 49.8 °F /  9.9 °C 46.8 °F /  8.2 °C 29.8in /  1008.2hPa SE 1.8mph /  2.9km/h 5.2mph /  8.4km/h 89.3% 0.01in /  0.2mm
04:19 49.6 °F /  9.8 °C 46.8 °F /  8.2 °C 29.8in /  1008.2hPa SE 1.9mph /  3.1km/h 5mph /  8km/h 89.6% 0.01in /  0.2mm
04:24 49.6 °F /  9.8 °C 46.8 °F /  8.2 °C 29.8in /  1007.9hPa SE 2mph /  3.2km/h 4.6mph /  7.4km/h 90% 0.01in /  0.2mm
04:29 49.5 °F /  9.7 °C 46.6 °F /  8.1 °C 29.8in /  1007.9hPa SE 2mph /  3.2km/h 5mph /  8km/h 90% 0.01in /  0.2mm
04:34 49.5 °F /  9.7 °C 46.6 °F /  8.1 °C 29.8in /  1007.9hPa SE 2mph /  3.2km/h 4.3mph /  6.9km/h 90% 0.01in /  0.2mm
04:39 49.5 °F /  9.7 °C 46.6 °F /  8.1 °C 29.8in /  1007.6hPa SE 1.9mph /  3km/h 5mph /  8km/h 90% 0.01in /  0.2mm
04:44 49.5 °F /  9.7 °C 46.8 °F /  8.2 °C 29.8in /  1007.6hPa SE 1.8mph /  2.9km/h 5.2mph /  8.4km/h 90.6% 0in /  0.0mm
04:49 49.5 °F /  9.7 °C 46.9 °F /  8.3 °C 29.8in /  1007.6hPa SE 2.5mph /  4km/h 5mph /  8km/h 91% 0in /  0.0mm
04:54 49.5 °F /  9.7 °C 46.9 °F /  8.3 °C 29.7in /  1007.2hPa SE 2.9mph /  4.6km/h 5mph /  8km/h 91% 0in /  0.0mm
04:59 49.5 °F /  9.7 °C 46.9 °F /  8.3 °C 29.7in /  1007.2hPa SE 2.1mph /  3.4km/h 4.6mph /  7.4km/h 91% 0in /  0.0mm
05:04 49.5 °F /  9.7 °C 46.9 °F /  8.3 °C 29.7in /  1007.2hPa SE 1.8mph /  2.9km/h 5mph /  8km/h 91% 0in /  0.0mm
05:09 49.5 °F /  9.7 °C 46.9 °F /  8.3 °C 29.7in /  1007.1hPa SE 1.6mph /  2.5km/h 3mph /  4.8km/h 91% 0in /  0.0mm
05:14 49.5 °F /  9.7 °C 46.9 °F /  8.3 °C 29.7in /  1007.1hPa SE 1.4mph /  2.2km/h   91% 0in /  0.0mm
05:19 49.5 °F /  9.7 °C 46.9 °F /  8.3 °C 29.7in /  1007.1hPa SE 0.6mph /  0.9km/h   91% 0in /  0.0mm
05:24 49.3 °F /  9.6 °C 46.8 °F /  8.2 °C 29.7in /  1006.9hPa Calm   4.7mph /  7.6km/h 91% 0in /  0.0mm
05:29 49.3 °F /  9.6 °C 46.8 °F /  8.2 °C 29.7in /  1006.9hPa SSO 1.1mph /  1.8km/h 5mph /  8km/h 91% 0in /  0.0mm
05:34 49.3 °F /  9.6 °C 46.8 °F /  8.2 °C 29.7in /  1007.0hPa SSO 1.8mph /  2.9km/h 5mph /  8km/h 91% 0in /  0.0mm
05:39 48.9 °F /  9.4 °C 46.4 °F /  8 °C 29.7in /  1007.0hPa SSO 0.7mph /  1.2km/h   91% 0in /  0.0mm
05:44 48.9 °F /  9.4 °C 46.4 °F /  8 °C 29.7in /  1007.0hPa Calm   3.1mph /  5km/h 91% 0in /  0.0mm
05:49 48.9 °F /  9.4 °C 46.4 °F /  8 °C 29.7in /  1007.0hPa Calm   3.6mph /  5.8km/h 91% 0in /  0.0mm
05:54 48.7 °F /  9.3 °C 46.2 °F /  7.9 °C 29.7in /  1006.7hPa Calm   4mph /  6.4km/h 91% 0in /  0.0mm
05:59 48.7 °F /  9.3 °C 46.2 °F /  7.9 °C 29.7in /  1006.7hPa ONO 0.9mph /  1.5km/h 6.9mph /  11.1km/h 91% 0in /  0.0mm
06:04 48.6 °F /  9.2 °C 46 °F /  7.8 °C 29.7in /  1006.7hPa ONO 1.4mph /  2.2km/h 7mph /  11.3km/h 91.1% 0in /  0.0mm
06:09 48.4 °F /  9.1 °C 46.2 °F /  7.9 °C 29.7in /  1006.7hPa ONO 2.3mph /  3.7km/h 5mph /  8km/h 92% 0in /  0.0mm
06:14 48.4 °F /  9.1 °C 46.2 °F /  7.9 °C 29.7in /  1006.7hPa ONO 2.9mph /  4.7km/h 5mph /  8km/h 92% 0in /  0.0mm
06:19 48.2 °F /  9 °C 46 °F /  7.8 °C 29.7in /  1006.7hPa ONO 2.9mph /  4.6km/h 5mph /  8km/h 92% 0in /  0.0mm
06:24 48 °F /  8.9 °C 45.9 °F /  7.7 °C 29.7in /  1006.7hPa ONO 2.9mph /  4.7km/h 5mph /  8km/h 92% 0in /  0.0mm
06:29 48 °F /  8.9 °C 45.9 °F /  7.7 °C 29.7in /  1006.7hPa ONO 2mph /  3.2km/h 4.6mph /  7.4km/h 92% 0in /  0.0mm
06:34 48 °F /  8.9 °C 45.9 °F /  7.7 °C 29.7in /  1006.7hPa SO 1.4mph /  2.2km/h 5mph /  8km/h 92% 0in /  0.0mm
06:39 48 °F /  8.9 °C 45.9 °F /  7.7 °C 29.7in /  1006.7hPa SO 1.7mph /  2.8km/h 4mph /  6.4km/h 92% 0in /  0.0mm
06:44 48 °F /  8.9 °C 45.9 °F /  7.7 °C 29.7in /  1006.7hPa SSE 2mph /  3.2km/h 5.8mph /  9.3km/h 92% 0in /  0.0mm
06:49 48 °F /  8.9 °C 45.9 °F /  7.7 °C 29.7in /  1006.7hPa SE 2.5mph /  4.1km/h 6mph /  9.7km/h 92% 0in /  0.0mm
06:54 47.8 °F /  8.8 °C 45.7 °F /  7.6 °C 29.7in /  1006.7hPa SE 2.9mph /  4.7km/h 5mph /  8km/h 92% 0in /  0.0mm
06:59 47.7 °F /  8.7 °C 45.5 °F /  7.5 °C 29.7in /  1006.7hPa SE 2.5mph /  4.1km/h 5mph /  8km/h 92% 0in /  0.0mm
07:04 47.7 °F /  8.7 °C 45.5 °F /  7.5 °C 29.7in /  1006.7hPa SSE 2.4mph /  3.9km/h 5mph /  8km/h 92% 0in /  0.0mm
07:09 47.5 °F /  8.6 °C 45.3 °F /  7.4 °C 29.7in /  1006.7hPa Sur 2.7mph /  4.4km/h 5mph /  8km/h 92% 0in /  0.0mm
07:14 47.5 °F /  8.6 °C 45.3 °F /  7.4 °C 29.7in /  1006.7hPa SSE 2.9mph /  4.6km/h 5.2mph /  8.4km/h 92% 0in /  0.0mm
07:19 47.5 °F /  8.6 °C 45.3 °F /  7.4 °C 29.7in /  1006.7hPa SSE 3mph /  4.8km/h 6.4mph /  10.3km/h 92% 0.01in /  0.3mm
07:24 47.1 °F /  8.4 °C 45 °F /  7.2 °C 29.7in /  1006.7hPa Sur 3.1mph /  5km/h 7mph /  11.3km/h 92% 0.01in /  0.3mm
07:29 47.1 °F /  8.4 °C 45 °F /  7.2 °C 29.7in /  1006.7hPa Sur 3.9mph /  6.2km/h 7mph /  11.3km/h 92% 0.01in /  0.3mm
07:34 47.1 °F /  8.4 °C 45 °F /  7.2 °C 29.7in /  1006.8hPa Sur 4.3mph /  6.9km/h 6mph /  9.7km/h 92.1% 0.01in /  0.3mm
07:39 46.9 °F /  8.3 °C 45.1 °F /  7.3 °C 29.7in /  1006.8hPa Sur 3.4mph /  5.5km/h 5mph /  8km/h 93% 0.01in /  0.3mm
07:44 47.1 °F /  8.4 °C 45.1 °F /  7.3 °C 29.7in /  1006.8hPa Sur 2.9mph /  4.6km/h 5.4mph /  8.7km/h 93% 0.01in /  0.3mm
07:49 47.1 °F /  8.4 °C 45.1 °F /  7.3 °C 29.7in /  1006.8hPa SSO 3.3mph /  5.3km/h 6mph /  9.7km/h 93% 0.01in /  0.3mm
07:54 47.1 °F /  8.4 °C 45.1 °F /  7.3 °C 29.7in /  1006.8hPa SSO 3.6mph /  5.8km/h 6mph /  9.7km/h 93% 0.01in /  0.3mm
07:59 47.1 °F /  8.4 °C 45.3 °F /  7.4 °C 29.7in /  1006.8hPa SO 3.1mph /  5km/h 6mph /  9.7km/h 93% 0.01in /  0.3mm
08:04 47.3 °F /  8.5 °C 45.1 °F /  7.3 °C 29.7in /  1007.0hPa SO 2.9mph /  4.6km/h 6mph /  9.7km/h 92.4% 0.01in /  0.3mm
08:09 47.3 °F /  8.5 °C 45 °F /  7.2 °C 29.7in /  1007.0hPa SO 2.9mph /  4.7km/h 5.8mph /  9.3km/h 92% 0.01in /  0.3mm
08:14 47.3 °F /  8.5 °C 45.1 °F /  7.3 °C 29.7in /  1007.0hPa OSO 2.9mph /  4.6km/h 6.4mph /  10.3km/h 92% 0.01in /  0.3mm
08:19 47.3 °F /  8.5 °C 45.1 °F /  7.3 °C 29.7in /  1007.0hPa SO 3mph /  4.8km/h 7mph /  11.3km/h 92% 0.01in /  0.3mm
08:24 47.3 °F /  8.5 °C 45.1 °F /  7.3 °C 29.7in /  1006.9hPa SSO 3.1mph /  5km/h 7mph /  11.3km/h 92% 0.01in /  0.3mm
08:29 47.3 °F /  8.5 °C 45.1 °F /  7.3 °C 29.7in /  1006.9hPa Sur 3.7mph /  5.9km/h 7mph /  11.3km/h 92% 0in /  0.0mm
08:34 47.3 °F /  8.5 °C 45.1 °F /  7.3 °C 29.7in /  1006.9hPa Sur 4mph /  6.5km/h 7mph /  11.3km/h 92% 0in /  0.0mm
08:39 47.1 °F /  8.4 °C 45 °F /  7.2 °C 29.7in /  1006.9hPa Sur 4mph /  6.5km/h 6.9mph /  11.1km/h 92% 0in /  0.0mm
08:44 47.1 °F /  8.4 °C 45 °F /  7.2 °C 29.7in /  1006.9hPa SSO 4mph /  6.5km/h 7.6mph /  12.2km/h 92% 0in /  0.0mm
08:49 47.1 °F /  8.4 °C 45 °F /  7.2 °C 29.7in /  1007.1hPa SSO 4.4mph /  7.1km/h 8.1mph /  13km/h 92% 0in /  0.0mm
08:54 47.3 °F /  8.5 °C 45.1 °F /  7.3 °C 29.7in /  1007.1hPa SO 4.7mph /  7.6km/h 7mph /  11.3km/h 92% 0in /  0.0mm
08:59 47.5 °F /  8.6 °C 45.1 °F /  7.3 °C 29.7in /  1007.1hPa SO 4.4mph /  7.1km/h 6.9mph /  11.1km/h 91.3% 0in /  0.0mm
09:04 47.7 °F /  8.7 °C 45.1 °F /  7.3 °C 29.7in /  1007.1hPa SO 4.3mph /  6.9km/h 7.4mph /  11.9km/h 91% 0in /  0.0mm
09:09 47.7 °F /  8.7 °C 45 °F /  7.2 °C 29.7in /  1007.1hPa SSO 4.5mph /  7.3km/h 8.5mph /  13.7km/h 90.3% 0in /  0.0mm
09:14 47.8 °F /  8.8 °C 45 °F /  7.2 °C 29.7in /  1007.1hPa SO 4.7mph /  7.6km/h 9mph /  14.5km/h 90% 0in /  0.0mm
09:19 47.8 °F /  8.8 °C 45 °F /  7.2 °C 29.7in /  1007.2hPa SO 4.3mph /  6.9km/h 7mph /  11.3km/h 90% 0in /  0.0mm
09:24 47.8 °F /  8.8 °C 45 °F /  7.2 °C 29.7in /  1007.2hPa SO 4mph /  6.5km/h 7.6mph /  12.2km/h 90% 0in /  0.0mm
09:29 47.8 °F /  8.8 °C 45 °F /  7.2 °C 29.7in /  1007.2hPa OSO 4.2mph /  6.7km/h 8.1mph /  13km/h 90% 0in /  0.0mm
09:34 47.8 °F /  8.8 °C 45 °F /  7.2 °C 29.7in /  1007.2hPa SSO 4.3mph /  6.9km/h 8mph /  12.9km/h 90% 0in /  0.0mm
09:39 47.8 °F /  8.8 °C 45 °F /  7.2 °C 29.7in /  1007.0hPa SSO 3.9mph /  6.2km/h 6mph /  9.7km/h 90% 0in /  0.0mm
09:44 47.8 °F /  8.8 °C 45.1 °F /  7.3 °C 29.7in /  1007.0hPa OSO 3.6mph /  5.8km/h 6mph /  9.7km/h 90% 0.01in /  0.2mm
09:49 48 °F /  8.9 °C 45.1 °F /  7.3 °C 29.7in /  1007.1hPa OSO 2.5mph /  4.1km/h 5mph /  8km/h 90% 0.01in /  0.2mm
09:54 48 °F /  8.9 °C 45.1 °F /  7.3 °C 29.7in /  1007.1hPa OSO 1.8mph /  2.9km/h 5.4mph /  8.7km/h 90% 0.01in /  0.2mm
09:59 48 °F /  8.9 °C 45.1 °F /  7.3 °C 29.7in /  1007.1hPa OSO 1.8mph /  2.9km/h 6mph /  9.7km/h 90% 0.01in /  0.2mm
10:04 48 °F /  8.9 °C 45.1 °F /  7.3 °C 29.7in /  1007.3hPa SO 1.8mph /  2.9km/h 6.9mph /  11.1km/h 90% 0.01in /  0.2mm
10:09 47.8 °F /  8.8 °C 45.1 °F /  7.3 °C 29.7in /  1007.3hPa SO 2.9mph /  4.6km/h 7mph /  11.3km/h 90.1% 0.01in /  0.2mm
10:14 47.8 °F /  8.8 °C 45.3 °F /  7.4 °C 29.7in /  1007.3hPa SSO 3.6mph /  5.8km/h 7mph /  11.3km/h 91% 0.01in /  0.2mm
10:19 48 °F /  8.9 °C 45.5 °F /  7.5 °C 29.7in /  1007.3hPa Sur 4mph /  6.5km/h 6.2mph /  10km/h 91% 0.01in /  0.2mm
10:24 48.2 °F /  9 °C 45.7 °F /  7.6 °C 29.7in /  1007.3hPa Sur 4.3mph /  6.9km/h 6.9mph /  11.1km/h 91% 0.01in /  0.2mm
10:29 48.4 °F /  9.1 °C 45.9 °F /  7.7 °C 29.7in /  1007.3hPa SSO 4.1mph /  6.6km/h 7mph /  11.3km/h 91% 0.01in /  0.2mm
10:34 48.6 °F /  9.2 °C 46 °F /  7.8 °C 29.8in /  1007.5hPa Sur 4mph /  6.5km/h 6.2mph /  10km/h 91% 0.01in /  0.2mm
10:39 48.6 °F /  9.2 °C 46 °F /  7.8 °C 29.8in /  1007.5hPa SSO 3.8mph /  6.1km/h 6.2mph /  10km/h 90.8% 0.01in /  0.2mm
10:44 48.6 °F /  9.2 °C 46 °F /  7.8 °C 29.8in /  1007.5hPa OSO 3.6mph /  5.8km/h 6mph /  9.7km/h 91% 0.01in /  0.2mm
10:49 48.7 °F /  9.3 °C 46.2 °F /  7.9 °C 29.8in /  1007.7hPa SSO 3.3mph /  5.3km/h 5.9mph /  9.5km/h 91% 0in /  0.0mm
10:54 49.1 °F /  9.5 °C 46.6 °F /  8.1 °C 29.8in /  1007.7hPa SO 3.1mph /  5km/h 6mph /  9.7km/h 91% 0in /  0.0mm
10:59 49.5 °F /  9.7 °C 46.8 °F /  8.2 °C 29.8in /  1007.7hPa Oeste 3.4mph /  5.5km/h 6.4mph /  10.3km/h 90.7% 0in /  0.0mm
11:04 49.6 °F /  9.8 °C 46.6 °F /  8.1 °C 29.8in /  1007.8hPa OSO 3.6mph /  5.8km/h 8.5mph /  13.7km/h 89.4% 0in /  0.0mm
11:09 50 °F /  10 °C 46.6 °F /  8.1 °C 29.8in /  1007.8hPa ONO 4.5mph /  7.3km/h 9mph /  14.5km/h 88.1% 0in /  0.0mm
11:14 50.5 °F /  10.3 °C 47.1 °F /  8.4 °C 29.8in /  1007.8hPa ONO 5.2mph /  8.4km/h 8mph /  12.9km/h 88% 0in /  0.0mm
11:19 51.1 °F /  10.6 °C 47.3 °F /  8.5 °C 29.8in /  1007.9hPa Oeste 3.8mph /  6.1km/h 6mph /  9.7km/h 87% 0in /  0.0mm
11:24 51.4 °F /  10.8 °C 47.3 °F /  8.5 °C 29.8in /  1007.9hPa SO 2.9mph /  4.7km/h 6.2mph /  10km/h 85.5% 0in /  0.0mm
11:29 52 °F /  11.1 °C 47.1 °F /  8.4 °C 29.8in /  1007.9hPa SSO 2.9mph /  4.7km/h 6mph /  9.7km/h 83.4% 0in /  0.0mm
11:34 52.2 °F /  11.2 °C 46.9 °F /  8.3 °C 29.8in /  1007.9hPa SSO 2.9mph /  4.7km/h 6mph /  9.7km/h 82.4% 0in /  0.0mm
11:39 52.5 °F /  11.4 °C 46.9 °F /  8.3 °C 29.8in /  1007.9hPa SO 2.6mph /  4.2km/h 5.2mph /  8.4km/h 80.9% 0in /  0.0mm
11:44 53.1 °F /  11.7 °C 46.9 °F /  8.3 °C 29.8in /  1007.9hPa ONO 2.4mph /  3.9km/h 5mph /  8km/h 79.8% 0in /  0.0mm
11:49 53.2 °F /  11.8 °C 47.1 °F /  8.4 °C 29.8in /  1008.0hPa ONO 2.2mph /  3.5km/h 5mph /  8km/h 79.8% 0in /  0.0mm
11:54 53.6 °F /  12 °C 47.3 °F /  8.5 °C 29.8in /  1008.0hPa OSO 2mph /  3.2km/h 6.9mph /  11.1km/h 79.2% 0in /  0.0mm
11:59 54 °F /  12.2 °C 47.3 °F /  8.5 °C 29.8in /  1008.0hPa SSO 2.5mph /  4.1km/h 7mph /  11.3km/h 78% 0in /  0.0mm
12:04 54.1 °F /  12.3 °C 47.3 °F /  8.5 °C 29.8in /  1008.0hPa Sur 2.9mph /  4.6km/h 6.2mph /  10km/h 78% 0in /  0.0mm
12:09 54.1 °F /  12.3 °C 47.5 °F /  8.6 °C 29.8in /  1008.0hPa SO 2.9mph /  4.7km/h 6.9mph /  11.1km/h 77.8% 0in /  0.0mm
12:14 54.5 °F /  12.5 °C 47.3 °F /  8.5 °C 29.8in /  1008.0hPa SO 2.9mph /  4.7km/h 7mph /  11.3km/h 77% 0in /  0.0mm
12:19 54.7 °F /  12.6 °C 47.5 °F /  8.6 °C 29.8in /  1008.2hPa OSO 3.3mph /  5.3km/h 7mph /  11.3km/h 76.7% 0in /  0.0mm
12:24 54.9 °F /  12.7 °C 47.8 °F /  8.8 °C 29.8in /  1008.2hPa Oeste 3.6mph /  5.8km/h 7.4mph /  11.9km/h 76.8% 0in /  0.0mm
12:29 55 °F /  12.8 °C 47.7 °F /  8.7 °C 29.8in /  1008.2hPa OSO 3.3mph /  5.3km/h 7mph /  11.3km/h 76% 0in /  0.0mm
12:34 55.2 °F /  12.9 °C 47.8 °F /  8.8 °C 29.8in /  1008.2hPa Oeste 3.1mph /  5km/h 8.5mph /  13.7km/h 76.1% 0in /  0.0mm
12:39 55.8 °F /  13.2 °C 48 °F /  8.9 °C 29.8in /  1008.1hPa OSO 3.7mph /  5.9km/h 9mph /  14.5km/h 75.4% 0in /  0.0mm
12:44 55.9 °F /  13.3 °C 47.8 °F /  8.8 °C 29.8in /  1008.1hPa Oeste 4mph /  6.5km/h 8.5mph /  13.7km/h 74.2% 0in /  0.0mm
12:49 56.1 °F /  13.4 °C 47.7 °F /  8.7 °C 29.8in /  1008.1hPa OSO 4.2mph /  6.7km/h 9.2mph /  14.8km/h 73.4% 0in /  0.0mm
12:54 56.5 °F /  13.6 °C 47.7 °F /  8.7 °C 29.8in /  1008.0hPa OSO 4.3mph /  6.9km/h 10.7mph /  17.2km/h 72.1% 0in /  0.0mm
12:59 56.5 °F /  13.6 °C 47.5 °F /  8.6 °C 29.8in /  1008.0hPa OSO 5.3mph /  8.6km/h 11mph /  17.7km/h 71.4% 0in /  0.0mm
13:04 56.7 °F /  13.7 °C 47.5 °F /  8.6 °C 29.8in /  1008.0hPa Oeste 5.9mph /  9.5km/h 11mph /  17.7km/h 71.2% 0in /  0.0mm
13:09 56.7 °F /  13.7 °C 46.9 °F /  8.3 °C 29.8in /  1008.0hPa ONO 5.5mph /  8.8km/h 13mph /  20.9km/h 69.7% 0in /  0.0mm
13:14 56.8 °F /  13.8 °C 46.2 °F /  7.9 °C 29.8in /  1008.0hPa ONO 5.2mph /  8.4km/h 16.1mph /  25.9km/h 67.7% 0in /  0.0mm
13:19 56.8 °F /  13.8 °C 45.9 °F /  7.7 °C 29.8in /  1008.0hPa ONO 7.1mph /  11.5km/h 17.3mph /  27.8km/h 66.5% 0in /  0.0mm
13:24 57 °F /  13.9 °C 45.9 °F /  7.7 °C 29.8in /  1007.9hPa ONO 8.5mph /  13.7km/h 17mph /  27.4km/h 66% 0in /  0.0mm
13:29 57.2 °F /  14 °C 45.5 °F /  7.5 °C 29.8in /  1007.9hPa ONO 8.9mph /  14.4km/h 15mph /  24.1km/h 64.8% 0in /  0.0mm
13:34 57.4 °F /  14.1 °C 45.7 °F /  7.6 °C 29.8in /  1007.9hPa ONO 9.2mph /  14.8km/h 17.5mph /  28.2km/h 64.9% 0in /  0.0mm
13:39 57.6 °F /  14.2 °C 45.5 °F /  7.5 °C 29.8in /  1007.7hPa ONO 8.9mph /  14.3km/h 17.3mph /  27.8km/h 64.1% 0in /  0.0mm
13:44 57.6 °F /  14.2 °C 45.1 °F /  7.3 °C 29.8in /  1007.7hPa Oeste 8.7mph /  14km/h 23.5mph /  37.8km/h 63.2% 0in /  0.0mm
13:49 57.6 °F /  14.2 °C 44.6 °F /  7 °C 29.8in /  1007.7hPa ONO 10.8mph /  17.4km/h 23mph /  37km/h 62.2% 0in /  0.0mm
13:54 57.6 °F /  14.2 °C 44.6 °F /  7 °C 29.8in /  1007.6hPa ONO 12.3mph /  19.8km/h 23mph /  37km/h 62.2% 0in /  0.0mm
13:59 57.7 °F /  14.3 °C 44.8 °F /  7.1 °C 29.8in /  1007.6hPa ONO 12.7mph /  20.5km/h 21.3mph /  34.3km/h 62.2% 0in /  0.0mm
14:04 57.7 °F /  14.3 °C 45.1 °F /  7.3 °C 29.8in /  1007.6hPa ONO 13mph /  20.9km/h 21mph /  33.8km/h 62.7% 0in /  0.0mm
14:09 57.9 °F /  14.4 °C 45.1 °F /  7.3 °C 29.8in /  1007.5hPa ONO 11.2mph /  18.1km/h 18.4mph /  29.6km/h 62.6% 0in /  0.0mm
14:14 57.9 °F /  14.4 °C 45 °F /  7.2 °C 29.8in /  1007.5hPa ONO 10mph /  16.1km/h 19.6mph /  31.5km/h 62.1% 0in /  0.0mm
14:19 57.7 °F /  14.3 °C 44.8 °F /  7.1 °C 29.8in /  1007.5hPa ONO 11.1mph /  17.8km/h 24.6mph /  39.6km/h 62% 0in /  0.0mm
14:24 57.6 °F /  14.2 °C 44.6 °F /  7 °C 29.8in /  1007.5hPa ONO 11.8mph /  19km/h 25mph /  40.2km/h 62.1% 0in /  0.0mm
14:29 57.4 °F /  14.1 °C 44.4 °F /  6.9 °C 29.8in /  1007.5hPa ONO 12.2mph /  19.7km/h 25.3mph /  40.7km/h 62% 0in /  0.0mm
14:34 57 °F /  13.9 °C 44.4 °F /  6.9 °C 29.8in /  1007.6hPa ONO 12.5mph /  20.1km/h 25mph /  40.2km/h 62.8% 0in /  0.0mm
14:39 56.8 °F /  13.8 °C 44.4 °F /  6.9 °C 29.8in /  1007.6hPa ONO 12.4mph /  19.9km/h 21.9mph /  35.2km/h 63% 0in /  0.0mm
14:44 56.8 °F /  13.8 °C 44.4 °F /  6.9 °C 29.8in /  1007.6hPa Oeste 12.3mph /  19.8km/h 22.3mph /  35.9km/h 63% 0in /  0.0mm
14:49 56.7 °F /  13.7 °C 44.1 °F /  6.7 °C 29.8in /  1007.6hPa Oeste 13.2mph /  21.2km/h 24.2mph /  38.9km/h 63% 0in /  0.0mm
14:54 56.3 °F /  13.5 °C 43.9 °F /  6.6 °C 29.8in /  1007.6hPa Oeste 13.7mph /  22.1km/h 24mph /  38.6km/h 63% 0in /  0.0mm
14:59 56.1 °F /  13.4 °C 43.7 °F /  6.5 °C 29.8in /  1007.6hPa ONO 13.7mph /  22.1km/h 22mph /  35.4km/h 63% 0in /  0.0mm
15:04 56.1 °F /  13.4 °C 43.7 °F /  6.5 °C 29.8in /  1007.8hPa ONO 13.7mph /  22.1km/h 22.3mph /  35.9km/h 63% 0in /  0.0mm
15:09 56.1 °F /  13.4 °C 43.7 °F /  6.5 °C 29.8in /  1007.8hPa ONO 12.6mph /  20.2km/h 22.3mph /  35.9km/h 63% 0in /  0.0mm
15:14 56.1 °F /  13.4 °C 44.1 °F /  6.7 °C 29.8in /  1007.8hPa ONO 11.8mph /  19km/h 22mph /  35.4km/h 63.8% 0in /  0.0mm
15:19 56.1 °F /  13.4 °C 43.7 °F /  6.5 °C 29.8in /  1007.8hPa ONO 10.7mph /  17.2km/h 21mph /  33.8km/h 63% 0in /  0.0mm
15:24 56.1 °F /  13.4 °C 43.9 °F /  6.6 °C 29.8in /  1007.8hPa Oeste 10mph /  16.1km/h 21.9mph /  35.2km/h 63.4% 0in /  0.0mm
15:29 55.9 °F /  13.3 °C 44.1 °F /  6.7 °C 29.8in /  1007.8hPa ONO 10.1mph /  16.3km/h 22mph /  35.4km/h 64.2% 0in /  0.0mm
15:34 55.9 °F /  13.3 °C 44.1 °F /  6.7 °C 29.8in /  1007.8hPa ONO 10.2mph /  16.4km/h 20.4mph /  32.8km/h 64.4% 0in /  0.0mm
15:39 55.9 °F /  13.3 °C 43.7 °F /  6.5 °C 29.8in /  1007.8hPa ONO 9.9mph /  15.9km/h 21mph /  33.8km/h 63.1% 0in /  0.0mm
15:44 56.3 °F /  13.5 °C 43.3 °F /  6.3 °C 29.8in /  1007.8hPa ONO 9.7mph /  15.6km/h 21mph /  33.8km/h 61.9% 0in /  0.0mm
15:49 56.7 °F /  13.7 °C 43.2 °F /  6.2 °C 29.8in /  1008.0hPa ONO 10.6mph /  17.1km/h 21mph /  33.8km/h 60.7% 0in /  0.0mm
15:54 56.7 °F /  13.7 °C 43 °F /  6.1 °C 29.8in /  1008.0hPa ONO 11.2mph /  18km/h 23mph /  37km/h 59.9% 0in /  0.0mm
15:59 56.8 °F /  13.8 °C 43 °F /  6.1 °C 29.8in /  1008.0hPa ONO 11.2mph /  18km/h 23mph /  37km/h 59.8% 0in /  0.0mm
16:04 56.8 °F /  13.8 °C 43.9 °F /  6.6 °C 29.8in /  1008.3hPa NNO 11.2mph /  18km/h 25.6mph /  41.2km/h 61.6% 0in /  0.0mm
16:09 56.7 °F /  13.7 °C 44.8 °F /  7.1 °C 29.8in /  1008.3hPa NNO 10.9mph /  17.6km/h 26mph /  41.8km/h 64.4% 0in /  0.0mm
16:14 56.1 °F /  13.4 °C 45 °F /  7.2 °C 29.8in /  1008.3hPa NNO 10.7mph /  17.2km/h 21mph /  33.8km/h 66.1% 0in /  0.0mm
16:19 55.8 °F /  13.2 °C 45.3 °F /  7.4 °C 29.8in /  1008.5hPa NO 10.3mph /  16.5km/h 19mph /  30.6km/h 67.9% 0in /  0.0mm
16:24 55.8 °F /  13.2 °C 45.7 °F /  7.6 °C 29.8in /  1008.5hPa NO 10mph /  16.1km/h 17.3mph /  27.8km/h 69% 0in /  0.0mm
16:29 55.6 °F /  13.1 °C 45.7 °F /  7.6 °C 29.8in /  1008.5hPa NNO 9.8mph /  15.8km/h 17mph /  27.4km/h 69% 0in /  0.0mm
16:34 55.6 °F /  13.1 °C 45.7 °F /  7.6 °C 29.8in /  1008.8hPa NNO 9.7mph /  15.6km/h 15mph /  24.1km/h 69% 0in /  0.0mm
16:39 55.6 °F /  13.1 °C 45.7 °F /  7.6 °C 29.8in /  1008.8hPa NNO 7.5mph /  12km/h 14mph /  22.5km/h 69% 0in /  0.0mm
16:44 55.6 °F /  13.1 °C 45.7 °F /  7.6 °C 29.8in /  1008.8hPa NO 5.9mph /  9.5km/h 12mph /  19.3km/h 69% 0in /  0.0mm
16:49 55.6 °F /  13.1 °C 45.3 °F /  7.4 °C 29.8in /  1008.9hPa NO 6.2mph /  10km/h 12mph /  19.3km/h 68.1% 0in /  0.0mm
16:54 55.8 °F /  13.2 °C 45.3 °F /  7.4 °C 29.8in /  1008.9hPa NO 6.4mph /  10.3km/h 10mph /  16.1km/h 67.7% 0in /  0.0mm
16:59 55.9 °F /  13.3 °C 45 °F /  7.2 °C 29.8in /  1008.9hPa NO 6.1mph /  9.8km/h 11.4mph /  18.3km/h 66.7% 0in /  0.0mm
17:04 56.1 °F /  13.4 °C 44.8 °F /  7.1 °C 29.8in /  1009.1hPa NO 5.9mph /  9.5km/h 12mph /  19.3km/h 66% 0in /  0.0mm
17:09 56.3 °F /  13.5 °C 44.8 °F /  7.1 °C 29.8in /  1009.1hPa NO 5.6mph /  9km/h 12mph /  19.3km/h 65.2% 0in /  0.0mm
17:14 56.7 °F /  13.7 °C 44.2 °F /  6.8 °C 29.8in /  1009.1hPa NO 5.4mph /  8.7km/h 9.2mph /  14.8km/h 63.3% 0in /  0.0mm
17:19 56.7 °F /  13.7 °C 43.9 °F /  6.6 °C 29.8in /  1009.4hPa NO 5.4mph /  8.7km/h 10.4mph /  16.7km/h 62.2% 0in /  0.0mm
17:24 56.8 °F /  13.8 °C 43.5 °F /  6.4 °C 29.8in /  1009.4hPa NO 5.4mph /  8.7km/h 14.7mph /  23.7km/h 60.8% 0in /  0.0mm
17:29 56.8 °F /  13.8 °C 42.8 °F /  6 °C 29.8in /  1009.4hPa NO 5.9mph /  9.5km/h 15mph /  24.1km/h 59.2% 0in /  0.0mm
17:34 57 °F /  13.9 °C 42.1 °F /  5.6 °C 29.8in /  1009.5hPa NO 6.2mph /  10km/h 10.4mph /  16.7km/h 57.5% 0in /  0.0mm
17:39 57 °F /  13.9 °C 41.9 °F /  5.5 °C 29.8in /  1009.5hPa NO 6mph /  9.7km/h 10mph /  16.1km/h 57% 0in /  0.0mm
17:44 56.8 °F /  13.8 °C 41.7 °F /  5.4 °C 29.8in /  1009.5hPa ONO 5.9mph /  9.5km/h 8.5mph /  13.7km/h 56.8% 0in /  0.0mm
17:49 56.7 °F /  13.7 °C 41.7 °F /  5.4 °C 29.8in /  1009.6hPa NO 5.2mph /  8.3km/h 9mph /  14.5km/h 57% 0in /  0.0mm
17:54 56.7 °F /  13.7 °C 41.4 °F /  5.2 °C 29.8in /  1009.6hPa ONO 4.7mph /  7.6km/h 6mph /  9.7km/h 56.4% 0in /  0.0mm
17:59 56.5 °F /  13.6 °C 41 °F /  5 °C 29.8in /  1009.6hPa ONO 4.2mph /  6.8km/h 6mph /  9.7km/h 56% 0in /  0.0mm
18:04 56.5 °F /  13.6 °C 41.2 °F /  5.1 °C 29.8in /  1009.7hPa ONO 4mph /  6.5km/h 5mph /  8km/h 56.3% 0in /  0.0mm
18:09 56.1 °F /  13.4 °C 41.2 °F /  5.1 °C 29.8in /  1009.7hPa ONO 3.5mph /  5.6km/h 5mph /  8km/h 57.3% 0in /  0.0mm
18:14 55.9 °F /  13.3 °C 41 °F /  5 °C 29.8in /  1009.7hPa Oeste 3.1mph /  5km/h 5.2mph /  8.4km/h 57.2% 0in /  0.0mm
18:19 55.8 °F /  13.2 °C 41.2 °F /  5.1 °C 29.8in /  1009.8hPa OSO 3.1mph /  5km/h 5.2mph /  8.4km/h 58% 0in /  0.0mm
18:24 55.6 °F /  13.1 °C 41.4 °F /  5.2 °C 29.8in /  1009.8hPa SO 3.1mph /  5km/h 6.2mph /  10km/h 58.6% 0in /  0.0mm
18:29 55.6 °F /  13.1 °C 41.5 °F /  5.3 °C 29.8in /  1009.8hPa SO 3.6mph /  5.8km/h 6.9mph /  11.1km/h 59.4% 0in /  0.0mm
18:34 55.2 °F /  12.9 °C 41.5 °F /  5.3 °C 29.8in /  1010.0hPa SO 4mph /  6.5km/h 7mph /  11.3km/h 60% 0in /  0.0mm
18:39 55.2 °F /  12.9 °C 41.5 °F /  5.3 °C 29.8in /  1010.0hPa SO 4.2mph /  6.7km/h 7mph /  11.3km/h 60% 0in /  0.0mm
18:44 55 °F /  12.8 °C 41.4 °F /  5.2 °C 29.8in /  1010.0hPa SO 4.3mph /  6.9km/h 7mph /  11.3km/h 60% 0in /  0.0mm
18:49 55 °F /  12.8 °C 41.4 °F /  5.2 °C 29.8in /  1010.2hPa SO 4.5mph /  7.3km/h 7.4mph /  11.9km/h 60% 0in /  0.0mm
18:54 55 °F /  12.8 °C 41.4 °F /  5.2 °C 29.8in /  1010.2hPa SO 4.7mph /  7.6km/h 7mph /  11.3km/h 60% 0in /  0.0mm
18:59 54.9 °F /  12.7 °C 41.2 °F /  5.1 °C 29.8in /  1010.2hPa SO 4.5mph /  7.2km/h 6.9mph /  11.1km/h 60% 0in /  0.0mm
19:04 54.9 °F /  12.7 °C 41.2 °F /  5.1 °C 29.8in /  1010.4hPa SO 4.3mph /  6.9km/h 7mph /  11.3km/h 60.1% 0in /  0.0mm
19:09 54.7 °F /  12.6 °C 41.4 °F /  5.2 °C 29.8in /  1010.4hPa SO 4.3mph /  6.9km/h 6mph /  9.7km/h 60.7% 0in /  0.0mm
19:14 54.5 °F /  12.5 °C 41.4 °F /  5.2 °C 29.8in /  1010.4hPa SO 4.3mph /  6.9km/h 6mph /  9.7km/h 61% 0in /  0.0mm
19:19 54.3 °F /  12.4 °C 41.2 °F /  5.1 °C 29.8in /  1010.5hPa SO 3.6mph /  5.8km/h 5mph /  8km/h 61% 0in /  0.0mm
19:24 54.1 °F /  12.3 °C 41 °F /  5 °C 29.8in /  1010.5hPa SO 3.1mph /  5km/h 5mph /  8km/h 61% 0in /  0.0mm
19:29 54 °F /  12.2 °C 41 °F /  5 °C 29.8in /  1010.5hPa OSO 3mph /  4.8km/h 5.2mph /  8.4km/h 61.5% 0in /  0.0mm
19:34 53.6 °F /  12 °C 41 °F /  5 °C 29.8in /  1010.6hPa Oeste 2.9mph /  4.7km/h 5.2mph /  8.4km/h 62.2% 0in /  0.0mm
19:39 53.2 °F /  11.8 °C 41 °F /  5 °C 29.8in /  1010.6hPa Oeste 3mph /  4.8km/h 5.8mph /  9.3km/h 63% 0in /  0.0mm
19:44 53.1 °F /  11.7 °C 40.8 °F /  4.9 °C 29.8in /  1010.6hPa Oeste 3.1mph /  5km/h 7.4mph /  11.9km/h 63% 0in /  0.0mm
19:49 53.1 °F /  11.7 °C 40.5 °F /  4.7 °C 29.9in /  1010.9hPa Oeste 3.9mph /  6.2km/h 7mph /  11.3km/h 62.1% 0in /  0.0mm
19:54 53.1 °F /  11.7 °C 40.5 °F /  4.7 °C 29.9in /  1010.9hPa Oeste 4.3mph /  6.9km/h 7mph /  11.3km/h 62% 0in /  0.0mm
19:59 53.1 °F /  11.7 °C 40.3 °F /  4.6 °C 29.9in /  1010.9hPa Oeste 4.3mph /  6.9km/h 6mph /  9.7km/h 62% 0in /  0.0mm
20:04 52.9 °F /  11.6 °C 40.3 °F /  4.6 °C 29.9in /  1011.3hPa Oeste 4.3mph /  6.9km/h 6.2mph /  10km/h 62% 0in /  0.0mm
20:09 52.9 °F /  11.6 °C 40.1 °F /  4.5 °C 29.9in /  1011.3hPa Oeste 4.3mph /  6.9km/h 6.9mph /  11.1km/h 61.9% 0in /  0.0mm
20:14 52.9 °F /  11.6 °C 39.7 °F /  4.3 °C 29.9in /  1011.3hPa Oeste 4.3mph /  6.9km/h 7mph /  11.3km/h 61% 0in /  0.0mm
20:19 53.1 °F /  11.7 °C 39.9 °F /  4.4 °C 29.9in /  1011.5hPa Oeste 4.1mph /  6.6km/h 6.9mph /  11.1km/h 60.8% 0in /  0.0mm
20:24 53.1 °F /  11.7 °C 39.4 °F /  4.1 °C 29.9in /  1011.5hPa Oeste 4mph /  6.5km/h 8.5mph /  13.7km/h 59.8% 0in /  0.0mm
20:29 53.2 °F /  11.8 °C 39 °F /  3.9 °C 29.9in /  1011.5hPa Oeste 4.7mph /  7.6km/h 10.4mph /  16.7km/h 58.2% 0in /  0.0mm
20:34 53.6 °F /  12 °C 38.7 °F /  3.7 °C 29.9in /  1011.7hPa Oeste 5.2mph /  8.4km/h 10mph /  16.1km/h 57.2% 0in /  0.0mm
20:39 53.8 °F /  12.1 °C 38.3 °F /  3.5 °C 29.9in /  1011.7hPa Oeste 4.9mph /  7.9km/h 10mph /  16.1km/h 55.8% 0in /  0.0mm
20:44 53.8 °F /  12.1 °C 37.9 °F /  3.3 °C 29.9in /  1011.7hPa Oeste 4.7mph /  7.6km/h 10.4mph /  16.7km/h 55% 0in /  0.0mm
20:49 53.6 °F /  12 °C 37.6 °F /  3.1 °C 29.9in /  1012.0hPa Oeste 5.4mph /  8.7km/h 11.2mph /  18km/h 54.6% 0in /  0.0mm
20:54 53.4 °F /  11.9 °C 36.9 °F /  2.7 °C 29.9in /  1012.0hPa Oeste 5.9mph /  9.5km/h 12mph /  19.3km/h 53.5% 0in /  0.0mm
20:59 53.4 °F /  11.9 °C 36.5 °F /  2.5 °C 29.9in /  1012.0hPa ONO 6.5mph /  10.5km/h 14mph /  22.5km/h 52.4% 0in /  0.0mm
21:04 53.6 °F /  12 °C 36.3 °F /  2.4 °C 29.9in /  1012.2hPa ONO 6.9mph /  11.1km/h 14mph /  22.5km/h 51.8% 0in /  0.0mm
21:09 53.8 °F /  12.1 °C 36.1 °F /  2.3 °C 29.9in /  1012.2hPa ONO 7.2mph /  11.6km/h 13mph /  20.9km/h 51% 0in /  0.0mm
21:14 54 °F /  12.2 °C 35.8 °F /  2.1 °C 29.9in /  1012.2hPa ONO 7.4mph /  11.9km/h 13mph /  20.9km/h 50.2% 0in /  0.0mm
21:19 54.1 °F /  12.3 °C 35.6 °F /  2 °C 29.9in /  1012.4hPa ONO 7.5mph /  12.1km/h 13mph /  20.9km/h 49.3% 0in /  0.0mm
21:24 54.3 °F /  12.4 °C 35.4 °F /  1.9 °C 29.9in /  1012.4hPa ONO 7.6mph /  12.2km/h 12mph /  19.3km/h 49% 0in /  0.0mm
21:29 54.3 °F /  12.4 °C 35.4 °F /  1.9 °C 29.9in /  1012.4hPa ONO 6.8mph /  11km/h 12mph /  19.3km/h 49% 0in /  0.0mm
21:34 54.3 °F /  12.4 °C 35.4 °F /  1.9 °C 29.9in /  1012.7hPa ONO 6.4mph /  10.3km/h 11.8mph /  19km/h 49% 0in /  0.0mm
21:39 54.1 °F /  12.3 °C 35.4 °F /  1.9 °C 29.9in /  1012.7hPa ONO 6.1mph /  9.8km/h 12mph /  19.3km/h 49% 0in /  0.0mm
21:44 54 °F /  12.2 °C 35.2 °F /  1.8 °C 29.9in /  1012.7hPa ONO 5.9mph /  9.5km/h 9mph /  14.5km/h 49% 0in /  0.0mm
21:49 54 °F /  12.2 °C 35.2 °F /  1.8 °C 29.9in /  1012.9hPa Oeste 6.1mph /  9.8km/h 10.7mph /  17.2km/h 49% 0in /  0.0mm
21:54 54 °F /  12.2 °C 35.2 °F /  1.8 °C 29.9in /  1012.9hPa Oeste 6.2mph /  10km/h 12.7mph /  20.4km/h 49% 0in /  0.0mm
21:59 53.8 °F /  12.1 °C 35.1 °F /  1.7 °C 29.9in /  1012.9hPa Oeste 6.3mph /  10.2km/h 13mph /  20.9km/h 49% 0in /  0.0mm
22:04 53.4 °F /  11.9 °C 35.2 °F /  1.8 °C 29.9in /  1013.1hPa Oeste 6.4mph /  10.3km/h 11mph /  17.7km/h 50% 0in /  0.0mm
22:09 53.2 °F /  11.8 °C 35.2 °F /  1.8 °C 29.9in /  1013.1hPa ONO 6.3mph /  10.1km/h 11mph /  17.7km/h 50% 0in /  0.0mm
22:14 53.2 °F /  11.8 °C 35.1 °F /  1.7 °C 29.9in /  1013.1hPa ONO 6.2mph /  10km/h 10.7mph /  17.2km/h 50% 0in /  0.0mm
22:19 53.1 °F /  11.7 °C 34.9 °F /  1.6 °C 29.9in /  1013.2hPa ONO 6.6mph /  10.7km/h 13.5mph /  21.7km/h 50% 0in /  0.0mm
22:24 53.1 °F /  11.7 °C 34.9 °F /  1.6 °C 29.9in /  1013.2hPa Oeste 6.9mph /  11.1km/h 14mph /  22.5km/h 50% 0in /  0.0mm
22:29 52.9 °F /  11.6 °C 35.1 °F /  1.7 °C 29.9in /  1013.2hPa Oeste 7.3mph /  11.8km/h 13mph /  20.9km/h 50.7% 0in /  0.0mm
22:34 52.9 °F /  11.6 °C 35.1 °F /  1.7 °C 29.9in /  1013.4hPa ONO 7.6mph /  12.2km/h 13mph /  20.9km/h 50.6% 0in /  0.0mm
22:39 52.9 °F /  11.6 °C 34.7 °F /  1.5 °C 29.9in /  1013.4hPa ONO 7.6mph /  12.2km/h 12mph /  19.3km/h 50% 0in /  0.0mm
22:44 52.9 °F /  11.6 °C 34.9 °F /  1.6 °C 29.9in /  1013.4hPa ONO 7.6mph /  12.2km/h 12mph /  19.3km/h 50.3% 0in /  0.0mm
22:49 52.7 °F /  11.5 °C 35.1 °F /  1.7 °C 29.9in /  1013.7hPa ONO 7.9mph /  12.7km/h 13mph /  20.9km/h 50.9% 0in /  0.0mm
22:54 52.5 °F /  11.4 °C 34.5 °F /  1.4 °C 29.9in /  1013.7hPa ONO 8.1mph /  13km/h 13mph /  20.9km/h 50.1% 0in /  0.0mm
22:59 52.5 °F /  11.4 °C 34.5 °F /  1.4 °C 29.9in /  1013.7hPa ONO 7.8mph /  12.5km/h 12mph /  19.3km/h 50% 0in /  0.0mm
23:04 52.5 °F /  11.4 °C 34.7 °F /  1.5 °C 29.9in /  1014.0hPa ONO 7.6mph /  12.2km/h 12mph /  19.3km/h 50.6% 0in /  0.0mm
23:09 52.3 °F /  11.3 °C 34.7 °F /  1.5 °C 29.9in /  1014.0hPa ONO 7.5mph /  12km/h 12mph /  19.3km/h 51% 0in /  0.0mm
23:14 52.3 °F /  11.3 °C 34.7 °F /  1.5 °C 29.9in /  1014.0hPa ONO 7.4mph /  11.9km/h 12mph /  19.3km/h 51% 0in /  0.0mm
23:19 52.2 °F /  11.2 °C 34.5 °F /  1.4 °C 29.9in /  1014.1hPa ONO 7.1mph /  11.4km/h 12mph /  19.3km/h 51% 0in /  0.0mm
23:24 52.2 °F /  11.2 °C 34.5 °F /  1.4 °C 29.9in /  1014.1hPa ONO 6.9mph /  11.1km/h 13mph /  20.9km/h 51% 0in /  0.0mm
23:29 52.2 °F /  11.2 °C 34.5 °F /  1.4 °C 29.9in /  1014.1hPa ONO 6.9mph /  11.1km/h 14.7mph /  23.7km/h 51% 0in /  0.0mm
23:34 52.2 °F /  11.2 °C 34.5 °F /  1.4 °C 30in /  1014.2hPa ONO 6.9mph /  11.1km/h 15mph /  24.1km/h 51% 0in /  0.0mm
23:39 52.2 °F /  11.2 °C 34.5 °F /  1.4 °C 30in /  1014.2hPa ONO 8.3mph /  13.4km/h 15mph /  24.1km/h 51% 0in /  0.0mm
23:44 52.2 °F /  11.2 °C 34.7 °F /  1.5 °C 30in /  1014.2hPa ONO 9.2mph /  14.8km/h 15.2mph /  24.5km/h 51% 0in /  0.0mm
23:49 52.3 °F /  11.3 °C 34.7 °F /  1.5 °C 30in /  1014.2hPa ONO 9.7mph /  15.6km/h 15mph /  24.1km/h 51% 0in /  0.0mm
23:54 52.2 °F /  11.2 °C 35.1 °F /  1.7 °C 30in /  1014.2hPa ONO 10mph /  16.1km/h 15mph /  24.1km/h 52% 0in /  0.0mm
23:59 52 °F /  11.1 °C 35.1 °F /  1.7 °C 30in /  1014.2hPa ONO 8.8mph /  14.1km/h 12.3mph /  19.8km/h 52.5% 0in /  0.0mm
Murcia-Puente Tocinos, Espa?a
Compliments of Weather Underground - 3 mb

La estación de MeteoMurcia.com, publica sus datos en los siguientes proyectos:

Weather Underground PWS IMURCIAP2 Meteoclimatic www.awekas.at

W3Counter
Web Analytics